Time;durP1;ratioP1;P1;durP2;ratioP2;P2;SDS_P1;SDS_P2;PMS_P1;PMS_P2;Temp;Humidity;BMP_temperature;BMP_pressure;BME280_temperature;BME280_humidity;BME280_pressure;Samples;Min_cycle;Max_cycle;Signal;HPM_P1;HPM_P2
2023/12/24 00:01:31;;;;;;;7.65;3.65;;;;;;;9.51;100.00;100826.88;5035714;28;20025;-55
2023/12/24 00:03:57;;;;;;;10.52;3.35;;;;;;;9.50;100.00;100827.84;5032240;28;20029;-57
2023/12/24 00:06:22;;;;;;;16.20;3.40;;;;;;;9.51;100.00;100824.22;5034229;28;20401;-56
2023/12/24 00:08:47;;;;;;;8.52;2.80;;;;;;;9.52;100.00;100822.41;5035916;28;20035;-56
2023/12/24 00:11:12;;;;;;;9.30;3.10;;;;;;;9.51;100.00;100823.38;5034006;28;20037;-55
2023/12/24 00:13:38;;;;;;;5.20;3.22;;;;;;;9.52;100.00;100830.38;5031967;28;20141;-55
2023/12/24 00:16:03;;;;;;;10.30;3.10;;;;;;;9.50;100.00;100837.59;5035737;28;20037;-53
2023/12/24 00:18:29;;;;;;;7.18;3.13;;;;;;;9.51;100.00;100833.97;5036205;28;20462;-54
2023/12/24 00:20:54;;;;;;;6.68;2.90;;;;;;;9.52;100.00;100833.88;5032097;28;20017;-56
2023/12/24 00:23:19;;;;;;;7.13;2.67;;;;;;;9.50;100.00;100843.75;5038145;28;20394;-56
2023/12/24 00:25:45;;;;;;;5.55;2.80;;;;;;;9.52;100.00;100844.47;5035961;28;20021;-57
2023/12/24 00:28:10;;;;;;;3.67;2.67;;;;;;;9.52;100.00;100848.94;5035098;28;20045;-56
2023/12/24 00:30:36;;;;;;;6.05;2.70;;;;;;;9.51;100.00;100839.28;5018134;28;20029;-53
2023/12/24 00:33:01;;;;;;;5.05;2.22;;;;;;;9.52;100.00;100825.91;5032934;28;20945;-54
2023/12/24 00:35:27;;;;;;;4.57;2.40;;;;;;;9.51;100.00;100828.66;5032239;28;20029;-54
2023/12/24 00:37:56;;;;;;;6.07;2.58;;;;;;;9.52;100.00;100810.00;5030712;28;20025;-53
2023/12/24 00:40:22;;;;;;;5.55;1.92;;;;;;;9.53;99.36;100800.25;5035437;28;20021;-55
2023/12/24 00:42:47;;;;;;;10.27;2.05;;;;;;;9.52;99.19;100801.22;5034105;28;20026;-53
2023/12/24 00:45:13;;;;;;;5.13;2.00;;;;;;;9.53;99.41;100797.63;5031339;28;20048;-55
2023/12/24 00:47:39;;;;;;;5.25;1.60;;;;;;;9.52;99.02;100777.34;5035238;28;20144;-55
2023/12/24 00:50:08;;;;;;;5.88;1.95;;;;;;;9.52;98.37;100772.03;5031821;28;20052;-53
2023/12/24 00:52:34;;;;;;;5.13;1.95;;;;;;;9.46;99.42;100760.09;5033386;28;20382;-53
2023/12/24 00:54:59;;;;;;;5.80;2.00;;;;;;;9.43;99.18;100747.91;5033197;28;20014;-55
2023/12/24 00:57:25;;;;;;;6.32;2.42;;;;;;;9.43;99.01;100737.28;5028894;28;20069;-55
2023/12/24 00:59:50;;;;;;;6.38;2.05;;;;;;;9.42;98.79;100738.25;5032547;28;20051;-52
2023/12/24 01:02:15;;;;;;;5.82;1.80;;;;;;;9.43;99.32;100745.25;5035308;28;20052;-56
2023/12/24 01:04:41;;;;;;;9.05;1.90;;;;;;;9.43;99.51;100716.09;5033593;28;20017;-53
2023/12/24 01:07:06;;;;;;;5.45;1.83;;;;;;;9.41;99.08;100701.28;5034677;28;20018;-56
2023/12/24 01:09:31;;;;;;;4.28;1.65;;;;;;;9.40;99.70;100681.84;5033239;28;20025;-56
2023/12/24 01:11:57;;;;;;;5.60;2.08;;;;;;;9.39;99.83;100688.13;5033514;28;20056;-57
2023/12/24 01:14:22;;;;;;;7.75;2.10;;;;;;;9.42;99.62;100684.38;5032747;28;20045;-57
2023/12/24 01:16:47;;;;;;;10.60;2.03;;;;;;;9.42;99.42;100681.72;5032669;28;20021;-55
2023/12/24 01:19:13;;;;;;;8.20;2.13;;;;;;;9.46;99.51;100693.81;5030197;28;20025;-57
2023/12/24 01:21:38;;;;;;;11.35;2.00;;;;;;;9.44;99.91;100677.16;5033288;28;20035;-54
2023/12/24 01:24:04;;;;;;;6.25;2.30;;;;;;;9.47;100.00;100678.75;5028851;28;20040;-57
2023/12/24 01:26:29;;;;;;;4.85;2.03;;;;;;;9.50;100.00;100678.53;5031240;28;20434;-58
2023/12/24 01:28:55;;;;;;;8.60;2.33;;;;;;;9.50;100.00;100683.81;5032988;28;20078;-56
2023/12/24 01:31:20;;;;;;;6.20;2.00;;;;;;;9.51;100.00;100688.16;5032582;28;20025;-57
2023/12/24 01:33:45;;;;;;;8.70;2.00;;;;;;;9.51;100.00;100696.09;5032657;28;20053;-57
2023/12/24 01:36:11;;;;;;;5.70;2.00;;;;;;;9.53;100.00;100694.22;5031281;28;20025;-55
2023/12/24 01:38:36;;;;;;;7.95;2.05;;;;;;;9.53;100.00;100691.56;5034394;28;20475;-55
2023/12/24 01:41:02;;;;;;;6.85;2.05;;;;;;;9.53;100.00;100702.16;5031350;28;20057;-55
2023/12/24 01:43:27;;;;;;;6.90;2.03;;;;;;;9.55;100.00;100706.38;5030527;28;20029;-56
2023/12/24 01:45:53;;;;;;;8.77;2.13;;;;;;;9.53;100.00;100691.56;5033999;28;20033;-57
2023/12/24 01:48:19;;;;;;;5.93;2.10;;;;;;;9.54;100.00;100707.34;5031099;28;20021;-56
2023/12/24 01:50:46;;;;;;;9.40;2.30;;;;;;;9.55;100.00;100698.41;5033262;28;20022;-57
2023/12/24 01:53:15;;;;;;;10.48;2.50;;;;;;;9.55;100.00;100713.50;5031468;28;20037;-56
2023/12/24 01:55:40;;;;;;;11.63;2.45;;;;;;;9.54;100.00;100712.66;5033422;28;20052;-57
2023/12/24 01:58:06;;;;;;;5.07;1.95;;;;;;;9.54;100.00;100710.00;5030179;28;20568;-56
2023/12/24 02:00:31;;;;;;;9.93;2.30;;;;;;;9.55;100.00;100713.50;5031587;28;20029;-56
2023/12/24 02:02:59;;;;;;;10.00;3.03;;;;;;;9.55;100.00;100703.72;5032608;28;20025;-57
2023/12/24 02:05:26;;;;;;;6.15;2.40;;;;;;;9.55;100.00;100701.06;5029526;28;20024;-57
2023/12/24 02:07:51;;;;;;;4.78;2.20;;;;;;;9.53;100.00;100697.69;5033387;28;20021;-54
2023/12/24 02:10:17;;;;;;;4.75;2.17;;;;;;;9.54;100.00;100696.75;5031542;28;20091;-57
2023/12/24 02:12:44;;;;;;;8.15;2.70;;;;;;;9.51;100.00;100696.97;5031197;28;20025;-57
2023/12/24 02:15:09;;;;;;;7.65;2.35;;;;;;;9.49;100.00;100701.50;5031458;28;20063;-56
2023/12/24 02:17:35;;;;;;;2.90;2.20;;;;;;;9.49;100.00;100698.03;5029465;28;20034;-54
2023/12/24 02:20:01;;;;;;;7.28;2.45;;;;;;;9.48;100.00;100701.66;5032564;28;20079;-55
2023/12/24 02:22:27;;;;;;;7.43;2.70;;;;;;;9.47;100.00;100692.00;5031078;28;20033;-57
2023/12/24 02:24:53;;;;;;;8.85;2.28;;;;;;;9.45;100.00;100677.03;5031726;28;20386;-57
2023/12/24 02:27:31;;;;;;;7.55;2.40;;;;;;;9.45;100.00;100670.91;5030595;28;20917;-57
2023/12/24 02:30:07;;;;;;;7.47;2.40;;;;;;;9.44;100.00;100677.16;5028940;28;20565;-56
2023/12/24 02:32:35;;;;;;;4.90;2.30;;;;;;;9.40;100.00;100660.63;5031007;28;20029;-56
2023/12/24 02:35:03;;;;;;;8.57;2.50;;;;;;;9.37;100.00;100660.88;5030809;28;20026;-56
2023/12/24 02:37:29;;;;;;;8.30;2.20;;;;;;;9.34;100.00;100660.25;5028014;28;20033;-56
2023/12/24 02:39:56;;;;;;;4.50;2.20;;;;;;;9.31;100.00;100647.22;5033970;28;20049;-56
2023/12/24 02:42:22;;;;;;;8.50;2.47;;;;;;;9.30;100.00;100648.19;5031456;28;20429;-57
2023/12/24 02:44:47;;;;;;;7.15;2.80;;;;;;;9.28;100.00;100642.19;5031709;28;20029;-57
2023/12/24 02:47:12;;;;;;;8.13;2.80;;;;;;;9.26;100.00;100637.00;5030809;28;20065;-57
2023/12/24 02:49:38;;;;;;;6.55;2.70;;;;;;;9.23;100.00;100643.34;5029261;28;20018;-56
2023/12/24 02:52:04;;;;;;;8.43;2.78;;;;;;;9.23;100.00;100634.56;5029832;28;20037;-57
2023/12/24 02:54:29;;;;;;;6.20;2.40;;;;;;;9.22;100.00;100633.69;5029559;28;20026;-58
2023/12/24 02:56:54;;;;;;;8.13;2.80;;;;;;;9.21;100.00;100626.72;5031581;28;20364;-58
2023/12/24 02:59:20;;;;;;;5.95;2.67;;;;;;;9.19;100.00;100620.69;5033940;28;20021;-58
2023/12/24 03:01:45;;;;;;;7.53;3.17;;;;;;;9.19;100.00;100626.00;5031059;28;20437;-57
2023/12/24 03:04:11;;;;;;;5.93;2.80;;;;;;;9.18;100.00;100626.94;5028725;28;20049;-56
2023/12/24 03:06:36;;;;;;;8.50;3.13;;;;;;;9.19;100.00;100623.34;5031475;28;20017;-57
2023/12/24 03:09:01;;;;;;;7.70;3.10;;;;;;;9.17;100.00;100625.25;5031476;28;20048;-56
2023/12/24 03:11:27;;;;;;;5.82;2.88;;;;;;;9.17;100.00;100619.13;5035551;28;20485;-56
2023/12/24 03:13:52;;;;;;;8.38;3.13;;;;;;;9.16;100.00;100620.06;5036844;28;20037;-57
2023/12/24 03:16:17;;;;;;;5.53;2.55;;;;;;;9.17;100.00;100613.81;5038894;28;20021;-57
2023/12/24 03:18:43;;;;;;;6.45;2.20;;;;;;;9.17;100.00;100614.66;5036972;28;20474;-57
2023/12/24 03:21:09;;;;;;;3.17;2.08;;;;;;;9.16;100.00;100596.22;5040510;28;20471;-58
2023/12/24 03:23:35;;;;;;;4.00;2.05;;;;;;;9.15;100.00;100589.25;5034071;28;20095;-57
2023/12/24 03:26:00;;;;;;;3.75;1.80;;;;;;;9.15;100.00;100589.25;5035958;28;20021;-56
2023/12/24 03:28:25;;;;;;;3.22;1.73;;;;;;;9.14;100.00;100583.06;5037004;28;20064;-57
2023/12/24 03:30:51;;;;;;;3.80;1.70;;;;;;;9.14;100.00;100575.13;5017551;28;20025;-57
2023/12/24 03:33:16;;;;;;;3.90;1.80;;;;;;;9.16;100.00;100580.31;5035978;28;20029;-56
2023/12/24 03:35:43;;;;;;;3.20;1.40;;;;;;;9.16;100.00;100583.81;5038203;28;20112;-57
2023/12/24 03:38:08;;;;;;;4.53;2.05;;;;;;;9.17;100.00;100568.75;5037605;28;20171;-56
2023/12/24 03:40:33;;;;;;;2.05;1.30;;;;;;;9.19;100.00;100569.50;5035479;28;20430;-56
2023/12/24 03:42:59;;;;;;;2.97;1.40;;;;;;;9.18;100.00;100560.69;5036971;28;20506;-56
2023/12/24 03:45:24;;;;;;;1.75;1.30;;;;;;;9.20;100.00;100558.78;5038271;28;20021;-57
2023/12/24 03:47:49;;;;;;;4.07;1.20;;;;;;;9.22;100.00;100559.50;5035084;28;20106;-57
2023/12/24 03:50:15;;;;;;;3.28;1.02;;;;;;;9.22;100.00;100551.53;5035702;28;20028;-57
2023/12/24 03:52:40;;;;;;;2.35;1.30;;;;;;;9.22;100.00;100556.00;5036015;28;20037;-58
2023/12/24 03:55:05;;;;;;;1.00;0.70;;;;;;;9.22;100.00;100545.41;5036161;28;20049;-56
2023/12/24 03:57:30;;;;;;;0.82;0.70;;;;;;;9.22;100.00;100534.81;5036548;28;20047;-57
2023/12/24 03:59:56;;;;;;;0.90;0.70;;;;;;;9.23;100.00;100547.13;5033945;28;20045;-57
2023/12/24 04:02:24;;;;;;;1.33;1.17;;;;;;;9.24;100.00;100556.72;5038868;28;20040;-58
2023/12/24 04:04:50;;;;;;;0.50;0.50;;;;;;;9.26;100.00;100549.53;5036747;28;20104;-57
2023/12/24 04:07:16;;;;;;;0.50;0.50;;;;;;;9.26;100.00;100552.19;5038924;28;20100;-57
2023/12/24 04:09:44;;;;;;;0.63;0.63;;;;;;;9.26;100.00;100544.22;5037168;28;20537;-57
2023/12/24 04:12:09;;;;;;;0.67;0.67;;;;;;;9.26;100.00;100546.88;5040983;28;20041;-55
2023/12/24 04:14:41;;;;;;;0.68;0.68;;;;;;;9.27;100.00;100545.91;5034254;28;20291;-57
2023/12/24 04:17:06;;;;;;;0.70;0.70;;;;;;;9.28;100.00;100542.31;5034012;28;20043;-56
2023/12/24 04:19:31;;;;;;;0.95;0.80;;;;;;;9.29;100.00;100537.84;5035647;28;20021;-54
2023/12/24 04:21:57;;;;;;;0.77;0.77;;;;;;;9.29;100.00;100543.13;5034040;28;20033;-55
2023/12/24 04:24:23;;;;;;;0.70;0.70;;;;;;;9.29;100.00;100538.69;5033876;28;20026;-57
2023/12/24 04:26:48;;;;;;;1.27;0.90;;;;;;;9.30;100.00;100531.59;5036128;28;20017;-55
2023/12/24 04:29:13;;;;;;;0.88;0.88;;;;;;;9.30;100.00;100528.94;5033954;28;20041;-56
2023/12/24 04:31:39;;;;;;;0.77;0.70;;;;;;;9.28;100.00;100533.53;5033656;28;20103;-56
2023/12/24 04:34:06;;;;;;;0.70;0.70;;;;;;;9.30;100.00;100537.72;5034122;28;20026;-57
2023/12/24 04:36:31;;;;;;;0.68;0.68;;;;;;;9.33;100.00;100531.34;5032987;28;20029;-55
2023/12/24 04:38:56;;;;;;;0.93;0.73;;;;;;;9.32;100.00;100527.84;5032730;28;20025;-54
2023/12/24 04:41:22;;;;;;;1.63;0.70;;;;;;;9.35;100.00;100527.63;5032596;28;20028;-55
2023/12/24 04:43:47;;;;;;;0.60;0.60;;;;;;;9.38;100.00;100522.09;5034088;28;20158;-56
2023/12/24 04:46:13;;;;;;;0.73;0.60;;;;;;;9.40;100.00;100519.31;5033106;28;20030;-56
2023/12/24 04:48:38;;;;;;;0.70;0.70;;;;;;;9.41;100.00;100523.66;5035113;28;20070;-57
2023/12/24 04:51:04;;;;;;;0.75;0.60;;;;;;;9.43;100.00;100519.09;5031881;28;20029;-55
2023/12/24 04:53:29;;;;;;;0.77;0.77;;;;;;;9.46;100.00;100524.16;5035586;28;20064;-53
2023/12/24 04:55:55;;;;;;;0.80;0.80;;;;;;;9.48;100.00;100524.03;5033703;28;20037;-53
2023/12/24 04:58:20;;;;;;;1.20;0.55;;;;;;;9.49;100.00;100526.53;5034753;28;20030;-56
2023/12/24 05:00:45;;;;;;;0.85;0.80;;;;;;;9.51;100.00;100523.78;5036275;28;20034;-56
2023/12/24 05:03:10;;;;;;;0.52;0.52;;;;;;;9.52;100.00;100509.56;5034060;28;20159;-56
2023/12/24 05:05:36;;;;;;;0.88;0.70;;;;;;;9.53;100.00;100514.75;5034155;28;20474;-56
2023/12/24 05:08:02;;;;;;;1.10;0.80;;;;;;;9.55;100.00;100514.63;5033095;28;20356;-55
2023/12/24 05:10:28;;;;;;;0.60;0.60;;;;;;;9.55;100.00;100514.63;5033907;28;20590;-56
2023/12/24 05:12:53;;;;;;;0.63;0.63;;;;;;;9.57;100.00;100512.69;5033983;28;20052;-57
2023/12/24 05:15:18;;;;;;;0.60;0.60;;;;;;;9.57;100.00;100518.84;5032113;28;20045;-56
2023/12/24 05:17:44;;;;;;;0.52;0.50;;;;;;;9.59;100.00;100519.59;5033163;28;20065;-56
2023/12/24 05:20:09;;;;;;;0.60;0.60;;;;;;;9.61;100.00;100527.44;5014404;28;20037;-56
2023/12/24 05:22:34;;;;;;;0.70;0.70;;;;;;;9.61;100.00;100522.97;5036241;28;20040;-57
2023/12/24 05:25:00;;;;;;;0.60;0.60;;;;;;;9.64;100.00;100519.22;5030094;28;20025;-57
2023/12/24 05:27:25;;;;;;;0.80;0.80;;;;;;;9.65;100.00;100514.78;5037811;28;20118;-55
2023/12/24 05:29:50;;;;;;;1.60;0.65;;;;;;;9.66;100.00;100512.00;5033889;28;20021;-56
2023/12/24 05:32:16;;;;;;;0.70;0.70;;;;;;;9.67;100.00;100510.19;5033314;28;20048;-57
2023/12/24 05:34:42;;;;;;;0.63;0.63;;;;;;;9.66;100.00;100525.25;5031387;28;20482;-57
2023/12/24 05:37:07;;;;;;;0.70;0.70;;;;;;;9.68;100.00;100511.88;5031872;28;20116;-56
2023/12/24 05:39:33;;;;;;;0.75;0.73;;;;;;;9.68;100.00;100511.88;5033774;28;20236;-56
2023/12/24 05:41:58;;;;;;;1.40;0.70;;;;;;;9.69;100.00;100505.59;5030729;28;20025;-57
2023/12/24 05:44:23;;;;;;;0.70;0.70;;;;;;;9.71;100.00;100499.22;5033332;28;20079;-57
2023/12/24 05:46:52;;;;;;;0.63;0.63;;;;;;;9.69;100.00;100498.50;5031347;28;20506;-57
2023/12/24 05:49:17;;;;;;;0.70;0.70;;;;;;;9.71;100.00;100495.72;5034524;28;20086;-57
2023/12/24 05:51:43;;;;;;;0.80;0.80;;;;;;;9.72;100.00;100506.19;5031424;28;20026;-56
2023/12/24 05:54:08;;;;;;;0.80;0.80;;;;;;;9.70;100.00;100504.66;5034204;28;20029;-55
2023/12/24 05:56:33;;;;;;;0.93;0.85;;;;;;;9.70;100.00;100504.66;5030261;28;20025;-56
2023/12/24 05:58:59;;;;;;;1.48;0.80;;;;;;;9.69;100.00;100495.84;5032590;28;20021;-56
2023/12/24 06:01:24;;;;;;;0.70;0.70;;;;;;;9.69;100.00;100495.00;5031391;28;20032;-56
2023/12/24 06:03:49;;;;;;;1.15;0.77;;;;;;;9.70;100.00;100494.03;5032857;28;20025;-55
2023/12/24 06:06:15;;;;;;;1.00;1.00;;;;;;;9.69;100.00;100493.19;5032841;28;20029;-56
2023/12/24 06:08:40;;;;;;;0.85;0.85;;;;;;;9.68;100.00;100502.13;5027995;28;20495;-56
2023/12/24 06:11:05;;;;;;;0.93;0.93;;;;;;;9.68;100.00;100501.28;5030861;28;20382;-56
2023/12/24 06:13:31;;;;;;;1.05;1.05;;;;;;;9.69;100.00;100503.81;5035877;28;20049;-56
2023/12/24 06:15:56;;;;;;;0.90;0.90;;;;;;;9.69;100.00;100505.59;5030716;28;20025;-56
2023/12/24 06:18:21;;;;;;;0.90;0.90;;;;;;;9.67;100.00;100495.09;5013194;28;20031;-56
2023/12/24 06:20:46;;;;;;;1.00;1.00;;;;;;;9.68;100.00;100490.66;5032947;28;20087;-57
2023/12/24 06:23:12;;;;;;;0.80;0.80;;;;;;;9.69;100.00;100497.63;5029828;28;20062;-56
2023/12/24 06:25:38;;;;;;;0.98;0.98;;;;;;;9.69;100.00;100500.28;5033295;28;20021;-56
2023/12/24 06:28:03;;;;;;;0.90;0.90;;;;;;;9.69;100.00;100489.69;5034359;28;20437;-56
2023/12/24 06:30:28;;;;;;;1.00;1.00;;;;;;;9.69;100.00;100481.72;5031254;28;20029;-56
2023/12/24 06:32:54;;;;;;;1.05;0.85;;;;;;;9.68;100.00;100485.38;5030650;28;20538;-56
2023/12/24 06:35:21;;;;;;;0.90;0.90;;;;;;;9.69;100.00;100481.72;5031792;28;20033;-56
2023/12/24 06:37:46;;;;;;;0.85;0.85;;;;;;;9.70;100.00;100465.69;5030337;28;20466;-55
2023/12/24 06:40:11;;;;;;;0.70;0.70;;;;;;;9.71;100.00;100469.19;5031313;28;20044;-57
2023/12/24 06:42:37;;;;;;;1.05;0.90;;;;;;;9.70;100.00;100471.00;5031920;28;20029;-56
2023/12/24 06:45:02;;;;;;;1.10;1.00;;;;;;;9.72;100.00;100473.53;5032127;28;20041;-55
2023/12/24 06:47:28;;;;;;;0.90;0.90;;;;;;;9.71;100.00;100472.69;5029247;28;20025;-52
2023/12/24 06:49:53;;;;;;;1.35;0.90;;;;;;;9.71;100.00;100469.19;5029452;28;20576;-57
2023/12/24 06:52:19;;;;;;;0.93;0.90;;;;;;;9.73;100.00;100470.75;5032496;28;20021;-57
2023/12/24 06:54:45;;;;;;;0.90;0.90;;;;;;;9.70;100.00;100471.00;5030392;28;20025;-56
2023/12/24 06:57:10;;;;;;;1.10;1.00;;;;;;;9.71;100.00;100472.69;5028029;28;20112;-56
2023/12/24 06:59:35;;;;;;;1.67;1.02;;;;;;;9.72;100.00;100477.03;5033996;28;20412;-57
2023/12/24 07:02:01;;;;;;;1.08;1.08;;;;;;;9.72;100.00;100462.94;5031520;28;20029;-57
2023/12/24 07:04:26;;;;;;;1.00;1.00;;;;;;;9.73;100.00;100468.13;5029783;28;20134;-56
2023/12/24 07:06:51;;;;;;;1.30;1.20;;;;;;;9.73;100.00;100454.03;5029590;28;20025;-56
2023/12/24 07:09:17;;;;;;;1.10;1.10;;;;;;;9.74;100.00;100448.59;5028783;28;20049;-56
2023/12/24 07:11:42;;;;;;;1.63;1.50;;;;;;;9.75;100.00;100452.09;5028831;28;20124;-55
2023/12/24 07:14:07;;;;;;;2.47;1.33;;;;;;;9.77;100.00;100458.09;5030360;28;20106;-56
2023/12/24 07:16:33;;;;;;;1.55;1.45;;;;;;;9.77;100.00;100456.28;5030093;28;20395;-55
2023/12/24 07:18:58;;;;;;;2.75;1.10;;;;;;;9.77;100.00;100460.75;5027063;28;20578;-57
2023/12/24 07:21:24;;;;;;;1.40;1.30;;;;;;;9.78;100.00;100459.81;5027561;28;20440;-58
2023/12/24 07:23:49;;;;;;;1.77;1.35;;;;;;;9.79;100.00;100459.69;5028497;28;21343;-57
2023/12/24 07:26:14;;;;;;;1.30;1.30;;;;;;;9.79;100.00;100459.69;5027765;28;20033;-55
2023/12/24 07:28:40;;;;;;;1.20;1.20;;;;;;;9.80;100.00;100466.66;5031460;28;20491;-57
2023/12/24 07:31:05;;;;;;;1.38;1.10;;;;;;;9.80;100.00;100464.00;5028251;28;20037;-56
2023/12/24 07:33:30;;;;;;;1.30;1.27;;;;;;;9.80;100.00;100469.31;5031720;28;20034;-57
2023/12/24 07:35:55;;;;;;;1.50;1.40;;;;;;;9.82;100.00;100471.84;5036552;28;20052;-57
2023/12/24 07:38:21;;;;;;;1.85;1.75;;;;;;;9.81;100.00;100468.34;5033497;28;20030;-56
2023/12/24 07:40:46;;;;;;;1.83;1.65;;;;;;;9.85;100.00;100470.75;5036240;28;20026;-58
2023/12/24 07:43:11;;;;;;;3.67;1.65;;;;;;;9.86;100.00;100470.66;5032056;28;20136;-57
2023/12/24 07:45:36;;;;;;;1.95;1.70;;;;;;;9.85;100.00;100465.47;5032501;28;20045;-58
2023/12/24 07:48:02;;;;;;;1.42;1.42;;;;;;;9.85;100.00;100478.72;5030133;28;20014;-58
2023/12/24 07:50:27;;;;;;;1.75;1.38;;;;;;;9.85;100.00;100479.56;5034321;28;20135;-58
2023/12/24 07:52:53;;;;;;;1.35;1.23;;;;;;;9.86;100.00;100478.59;5031001;28;20026;-57
2023/12/24 07:55:18;;;;;;;1.20;1.20;;;;;;;9.85;100.00;100481.38;5029726;28;20053;-57
2023/12/24 07:57:43;;;;;;;1.95;1.20;;;;;;;9.84;100.00;100472.56;5030729;28;20086;-57
2023/12/24 08:00:09;;;;;;;0.85;0.85;;;;;;;9.81;100.00;100460.41;5034596;28;20025;-57
2023/12/24 08:02:34;;;;;;;1.10;1.10;;;;;;;9.81;100.00;100456.91;5036816;28;20478;-57
2023/12/24 08:05:00;;;;;;;1.42;0.95;;;;;;;9.80;100.00;100460.50;5032699;28;20028;-58
2023/12/24 08:07:25;;;;;;;1.05;0.98;;;;;;;9.79;100.00;100464.97;5033020;28;20030;-57
2023/12/24 08:09:51;;;;;;;1.90;0.98;;;;;;;9.79;100.00;100470.28;5033285;28;20160;-58
2023/12/24 08:12:16;;;;;;;1.48;0.90;;;;;;;9.79;100.00;100472.06;5033745;28;20025;-58
2023/12/24 08:14:41;;;;;;;0.88;0.85;;;;;;;9.76;100.00;100470.53;5034123;28;20045;-57
2023/12/24 08:17:07;;;;;;;0.95;0.90;;;;;;;9.78;100.00;100470.41;5034910;28;20116;-58
2023/12/24 08:19:32;;;;;;;1.00;1.00;;;;;;;9.77;100.00;100476.66;5036600;28;20030;-57
2023/12/24 08:21:58;;;;;;;1.00;1.00;;;;;;;9.77;100.00;100480.16;5036592;28;20079;-56
2023/12/24 08:24:23;;;;;;;1.50;1.42;;;;;;;9.76;100.00;100462.56;5033687;28;20029;-58
2023/12/24 08:26:48;;;;;;;1.30;1.30;;;;;;;9.76;100.00;100467.03;5033289;28;20027;-58
2023/12/24 08:29:14;;;;;;;1.42;1.20;;;;;;;9.76;100.00;100456.44;5040159;28;20044;-58
2023/12/24 08:31:39;;;;;;;1.35;1.00;;;;;;;9.77;100.00;100460.75;5041308;28;20028;-57
2023/12/24 08:34:04;;;;;;;1.33;1.23;;;;;;;9.76;100.00;100465.22;5037356;28;20028;-58
2023/12/24 08:36:29;;;;;;;1.10;1.10;;;;;;;9.78;100.00;100457.16;5000126;28;20379;-58
2023/12/24 08:38:55;;;;;;;2.25;1.40;;;;;;;9.78;100.00;100459.81;5037169;28;20017;-57
2023/12/24 08:41:20;;;;;;;1.10;1.10;;;;;;;9.79;100.00;100456.16;5038007;28;20063;-58
2023/12/24 08:43:45;;;;;;;1.80;1.20;;;;;;;9.80;100.00;100452.56;5034634;28;20021;-58
2023/12/24 08:46:11;;;;;;;1.45;1.35;;;;;;;9.80;100.00;100461.34;5036125;28;20033;-58
2023/12/24 08:48:37;;;;;;;1.15;1.15;;;;;;;9.81;100.00;100464.88;5035787;28;20087;-57
2023/12/24 08:51:03;;;;;;;1.05;1.05;;;;;;;9.81;100.00;100463.03;5037041;28;20033;-58
2023/12/24 08:53:28;;;;;;;1.20;1.20;;;;;;;9.82;100.00;100459.44;5033791;28;20036;-58
2023/12/24 08:55:54;;;;;;;1.50;1.40;;;;;;;9.85;100.00;100453.03;5033532;28;20033;-58
2023/12/24 08:58:19;;;;;;;1.88;1.45;;;;;;;9.86;100.00;100456.50;5035691;28;20057;-57
2023/12/24 09:00:44;;;;;;;1.40;1.30;;;;;;;9.87;100.00;100456.41;5033771;28;20025;-57
2023/12/24 09:03:10;;;;;;;1.60;1.50;;;;;;;9.89;100.00;100458.94;5035490;28;20048;-57
2023/12/24 09:05:35;;;;;;;1.60;1.50;;;;;;;9.92;100.00;100461.34;5033030;28;20025;-58
2023/12/24 09:08:00;;;;;;;1.55;1.45;;;;;;;9.92;100.00;100469.31;5031577;28;20386;-57
2023/12/24 09:10:26;;;;;;;2.67;1.60;;;;;;;9.92;100.00;100474.59;5034433;28;20037;-58
2023/12/24 09:12:51;;;;;;;1.80;1.70;;;;;;;9.94;100.00;100480.63;5037370;28;20441;-58
2023/12/24 09:15:17;;;;;;;2.00;1.90;;;;;;;9.92;100.00;100478.09;5039318;28;20532;-58
2023/12/24 09:17:43;;;;;;;2.05;1.95;;;;;;;9.95;100.00;100482.31;5038761;28;20047;-58
2023/12/24 09:20:09;;;;;;;2.20;2.10;;;;;;;9.96;100.00;100482.19;5014693;28;20037;-58
2023/12/24 09:22:34;;;;;;;2.17;2.00;;;;;;;9.97;100.00;100483.88;5036210;28;20040;-58
2023/12/24 09:24:59;;;;;;;2.20;2.05;;;;;;;9.99;100.00;100473.13;5035988;28;20025;-58
2023/12/24 09:27:24;;;;;;;1.90;1.80;;;;;;;10.01;100.00;100471.22;5039071;28;20076;-58
2023/12/24 09:29:50;;;;;;;1.88;1.77;;;;;;;10.03;100.00;100468.47;5036795;28;20910;-58
2023/12/24 09:32:15;;;;;;;2.13;2.00;;;;;;;10.04;100.00;100472.78;5037404;28;20094;-57
2023/12/24 09:34:40;;;;;;;1.63;1.52;;;;;;;10.05;100.00;100464.69;5032917;28;20048;-58
2023/12/24 09:37:06;;;;;;;1.80;1.70;;;;;;;10.07;100.00;100468.06;5029104;28;20120;-58
2023/12/24 09:39:31;;;;;;;1.85;1.75;;;;;;;10.08;100.00;100450.34;5030828;28;20025;-58
2023/12/24 09:41:57;;;;;;;2.55;1.60;;;;;;;10.08;100.00;100453.84;5034032;28;20064;-58
2023/12/24 09:44:23;;;;;;;1.38;1.33;;;;;;;10.09;100.00;100459.97;5020340;28;20033;-58
2023/12/24 09:46:49;;;;;;;1.73;1.63;;;;;;;10.10;100.00;100448.41;5037964;28;20025;-58
2023/12/24 09:49:14;;;;;;;1.77;1.67;;;;;;;10.11;100.00;100460.72;5036910;28;20180;-57
2023/12/24 09:51:42;;;;;;;2.33;2.22;;;;;;;10.12;100.00;100460.56;5020985;28;20037;-58
2023/12/24 09:54:07;;;;;;;2.60;2.40;;;;;;;10.13;100.00;100462.28;5037354;28;20048;-59
2023/12/24 09:56:33;;;;;;;3.88;3.00;;;;;;;10.13;100.00;100459.63;5035517;28;20326;-57
2023/12/24 09:58:58;;;;;;;4.90;4.40;;;;;;;10.16;100.00;100462.03;5034646;28;20112;-56
2023/12/24 10:01:23;;;;;;;7.57;5.03;;;;;;;10.19;100.00;100452.97;5037219;28;20124;-57
2023/12/24 10:03:49;;;;;;;9.38;6.60;;;;;;;10.19;100.00;100463.56;5031958;28;20024;-57
2023/12/24 10:06:14;;;;;;;7.55;6.30;;;;;;;10.23;100.00;100472.16;5037511;28;20037;-57
2023/12/24 10:08:40;;;;;;;11.38;8.27;;;;;;;10.23;100.00;100466.84;5036630;28;20283;-57
2023/12/24 10:11:25;;;;;;;8.85;7.95;;;;;;;10.25;100.00;100454.28;5028447;28;20040;-57
2023/12/24 10:14:00;;;;;;;11.18;8.52;;;;;;;10.27;100.00;100465.63;5033525;28;20046;-56
2023/12/24 10:16:29;;;;;;;11.55;9.27;;;;;;;10.27;100.00;100463.78;5036432;28;20025;-56
2023/12/24 10:18:54;;;;;;;12.30;9.80;;;;;;;10.29;100.00;100448.59;5036186;28;20030;-56
2023/12/24 10:21:20;;;;;;;13.73;10.25;;;;;;;10.31;100.00;100456.44;5036276;28;20355;-58
2023/12/24 10:23:45;;;;;;;16.10;11.48;;;;;;;10.33;100.00;100455.38;5035467;28;20367;-58
2023/12/24 10:26:12;;;;;;;16.63;10.70;;;;;;;10.34;100.00;100464.16;5031439;28;20108;-57
2023/12/24 10:28:51;;;;;;;16.80;10.60;;;;;;;10.37;100.00;100463.91;5033761;28;20083;-57
2023/12/24 10:31:16;;;;;;;19.48;10.85;;;;;;;10.39;100.00;100455.84;5031264;28;20692;-57
2023/12/24 10:33:42;;;;;;;18.27;10.35;;;;;;;10.38;100.00;100449.69;5035175;28;20025;-56
2023/12/24 10:36:08;;;;;;;17.63;11.38;;;;;;;10.40;100.00;100452.22;5033998;28;20033;-57
2023/12/24 10:38:34;;;;;;;16.15;9.02;;;;;;;10.43;100.00;100449.31;5034463;28;20024;-57
2023/12/24 10:41:01;;;;;;;16.05;9.45;;;;;;;10.45;100.00;100426.13;5034008;28;20037;-57
2023/12/24 10:43:26;;;;;;;19.50;9.70;;;;;;;10.45;100.00;100434.09;5037504;28;20304;-56
2023/12/24 10:45:52;;;;;;;12.48;8.98;;;;;;;10.47;100.00;100432.97;5030936;28;20525;-57
2023/12/24 10:48:17;;;;;;;13.82;8.23;;;;;;;10.50;100.00;100413.31;5037934;28;20025;-57
2023/12/24 10:50:43;;;;;;;17.15;7.47;;;;;;;10.52;100.00;100406.91;5035980;28;20052;-59
2023/12/24 10:53:09;;;;;;;12.65;6.75;;;;;;;10.54;100.00;100415.59;5035343;28;20029;-58
2023/12/24 10:55:35;;;;;;;9.88;5.38;;;;;;;10.57;100.00;100418.97;5036193;28;20094;-58
2023/12/24 10:58:07;;;;;;;7.20;4.95;;;;;;;10.59;100.00;100414.34;5032297;28;20029;-58
2023/12/24 11:00:32;;;;;;;12.32;4.93;;;;;;;10.61;100.00;100409.75;5031003;28;20421;-58
2023/12/24 11:02:57;;;;;;;8.43;3.92;;;;;;;10.62;100.00;100409.63;5030141;28;20030;-58
2023/12/24 11:05:46;;;;;;;6.50;3.70;;;;;;;10.65;100.00;100420.00;5035546;28;20112;-57
2023/12/24 11:08:21;;;;;;;7.70;3.40;;;;;;;10.64;100.00;100420.97;5022298;28;20119;-58
2023/12/24 11:10:56;;;;;;;7.22;3.00;;;;;;;10.66;100.00;100410.22;5032490;28;20490;-58
2023/12/24 11:13:34;;;;;;;6.03;2.30;;;;;;;10.66;100.00;100394.28;5033115;28;20120;-58
2023/12/24 11:16:01;;;;;;;4.53;2.50;;;;;;;10.66;100.00;100400.44;5035258;28;20396;-57
2023/12/24 11:18:58;;;;;;;3.55;2.50;;;;;;;10.68;100.00;100403.81;5033706;28;20402;-58